createdAt,value
2019-04-07T00:00:18.639Z,997.03
2019-04-07T00:01:18.709Z,997.09
2019-04-07T00:02:18.622Z,997.07
2019-04-07T00:03:18.664Z,997.07
2019-04-07T00:04:18.644Z,997.12
2019-04-07T00:05:18.681Z,997.09
2019-04-07T00:06:19.067Z,997.10
2019-04-07T00:07:18.604Z,997.10
2019-04-07T00:08:18.566Z,997.13
2019-04-07T00:09:18.918Z,997.10
2019-04-07T00:10:19.136Z,997.11
2019-04-07T00:11:18.892Z,997.14
2019-04-07T00:12:18.855Z,997.16
2019-04-07T00:13:18.542Z,997.14
2019-04-07T00:14:18.477Z,997.19
2019-04-07T00:15:18.580Z,997.12
2019-04-07T00:16:18.550Z,997.13
2019-04-07T00:17:19.191Z,997.09
2019-04-07T00:18:19.108Z,997.06
2019-04-07T00:19:18.469Z,997.07
2019-04-07T00:20:18.701Z,997.07
2019-04-07T00:21:18.486Z,997.12
2019-04-07T00:22:18.435Z,997.05
2019-04-07T00:23:18.497Z,997.10
2019-04-07T00:24:18.379Z,997.08
2019-04-07T00:25:18.419Z,997.10
2019-04-07T00:26:18.395Z,997.07
2019-04-07T00:27:19.028Z,997.00
2019-04-07T00:28:18.459Z,997.08
2019-04-07T00:29:18.446Z,997.16
2019-04-07T00:30:18.304Z,997.08
2019-04-07T00:31:18.389Z,997.11
2019-04-07T00:32:18.328Z,997.05
2019-04-07T00:33:18.470Z,997.11
2019-04-07T00:34:18.294Z,997.09
2019-04-07T00:35:26.883Z,997.08
2019-04-07T00:36:19.254Z,997.13
2019-04-07T00:37:18.367Z,997.12
2019-04-07T00:38:18.239Z,997.12
2019-04-07T00:39:18.300Z,997.09
2019-04-07T00:40:18.555Z,997.06
2019-04-07T00:41:18.366Z,997.08
2019-04-07T00:42:18.219Z,997.13
2019-04-07T00:43:18.770Z,997.10
2019-04-07T00:44:18.904Z,997.14
2019-04-07T00:45:18.547Z,997.12
2019-04-07T00:46:18.176Z,997.15
2019-04-07T00:47:18.560Z,997.13
2019-04-07T00:48:18.119Z,997.11
2019-04-07T00:49:18.291Z,997.13
2019-04-07T00:50:18.306Z,997.08
2019-04-07T00:51:18.783Z,997.10
2019-04-07T00:52:18.226Z,997.13
2019-04-07T00:53:18.094Z,997.09
2019-04-07T00:54:18.054Z,997.04
2019-04-07T00:55:18.774Z,997.13
2019-04-07T00:56:18.308Z,997.08
2019-04-07T00:57:18.153Z,997.06
2019-04-07T00:58:18.034Z,997.02
2019-04-07T00:59:18.231Z,997.06
2019-04-07T01:00:18.273Z,997.05
2019-04-07T01:01:18.041Z,997.06
2019-04-07T01:02:17.997Z,997.08
2019-04-07T01:03:18.269Z,997.08
2019-04-07T01:04:17.995Z,997.00
2019-04-07T01:05:18.016Z,997.01
2019-04-07T01:06:17.912Z,997.07
2019-04-07T01:07:18.061Z,997.02
2019-04-07T01:08:18.009Z,997.07
2019-04-07T01:09:18.691Z,997.02
2019-04-07T01:10:18.318Z,997.03
2019-04-07T01:11:17.919Z,996.96
2019-04-07T01:12:18.265Z,997.06
2019-04-07T01:13:17.961Z,997.01
2019-04-07T01:14:18.189Z,996.99
2019-04-07T01:15:18.588Z,996.99
2019-04-07T01:16:17.803Z,996.99
2019-04-07T01:17:17.926Z,996.97
2019-04-07T01:18:18.116Z,996.99
2019-04-07T01:19:17.937Z,997.00
2019-04-07T01:20:17.811Z,996.96
2019-04-07T01:21:17.769Z,997.06
2019-04-07T01:22:17.771Z,996.96
2019-04-07T01:23:18.202Z,996.99
2019-04-07T01:24:17.737Z,997.04
2019-04-07T01:25:17.813Z,997.00
2019-04-07T01:26:17.718Z,997.00
2019-04-07T01:27:18.261Z,997.01
2019-04-07T01:28:17.677Z,997.02
2019-04-07T01:29:18.390Z,997.02
2019-04-07T01:30:18.310Z,997.07
2019-04-07T01:31:17.859Z,997.01
2019-04-07T01:32:17.627Z,997.08
2019-04-07T01:33:17.760Z,997.04
2019-04-07T01:34:17.646Z,997.03
2019-04-07T01:35:17.724Z,997.01
2019-04-07T01:36:18.200Z,997.06
2019-04-07T01:37:17.685Z,997.05
2019-04-07T01:38:17.908Z,997.06
2019-04-07T01:39:18.166Z,997.02
2019-04-07T01:40:17.697Z,997.07
2019-04-07T01:41:17.631Z,997.09
2019-04-07T01:42:17.951Z,997.05
2019-04-07T01:43:17.632Z,997.05
2019-04-07T01:44:17.990Z,997.06
2019-04-07T01:45:18.073Z,997.09
2019-04-07T01:46:17.635Z,997.02
2019-04-07T01:47:17.755Z,997.05
2019-04-07T01:48:17.645Z,997.11
2019-04-07T01:49:17.586Z,997.10
2019-04-07T01:50:17.446Z,997.06
2019-04-07T01:51:17.731Z,997.07
2019-04-07T01:52:17.411Z,997.05
2019-04-07T01:53:18.006Z,997.06
2019-04-07T01:54:17.554Z,997.06
2019-04-07T01:55:18.080Z,997.01
2019-04-07T01:56:17.445Z,997.06
2019-04-07T01:57:18.376Z,997.07
2019-04-07T01:58:17.401Z,997.05
2019-04-07T01:59:17.424Z,997.05
2019-04-07T02:00:17.353Z,997.00
2019-04-07T02:01:17.424Z,997.00
2019-04-07T02:02:17.482Z,996.92
2019-04-07T02:03:17.550Z,996.91
2019-04-07T02:04:17.277Z,996.97
2019-04-07T02:05:17.414Z,996.97
2019-04-07T02:06:17.811Z,996.90
2019-04-07T02:07:17.366Z,996.97
2019-04-07T02:08:17.236Z,996.96
2019-04-07T02:09:17.312Z,996.99
2019-04-07T02:10:17.259Z,996.94
2019-04-07T02:11:17.299Z,996.97
2019-04-07T02:12:17.194Z,996.96
2019-04-07T02:13:17.484Z,996.97
2019-04-07T02:14:17.175Z,996.99
2019-04-07T02:15:17.428Z,996.94
2019-04-07T02:16:17.158Z,996.96
2019-04-07T02:17:17.355Z,996.93
2019-04-07T02:18:17.675Z,996.90
2019-04-07T02:19:17.496Z,996.94
2019-04-07T02:20:17.678Z,996.89
2019-04-07T02:21:17.385Z,996.90
2019-04-07T02:22:17.095Z,996.95
2019-04-07T02:23:17.460Z,996.90
2019-04-07T02:24:17.061Z,996.90
2019-04-07T02:25:17.319Z,996.90
2019-04-07T02:26:17.042Z,996.90
2019-04-07T02:27:17.221Z,996.92
2019-04-07T02:28:17.604Z,996.88
2019-04-07T02:29:17.120Z,996.88
2019-04-07T02:30:16.995Z,996.85
2019-04-07T02:31:17.239Z,996.87
2019-04-07T02:32:17.439Z,996.87
2019-04-07T02:33:18.103Z,996.86
2019-04-07T02:34:17.729Z,996.89
2019-04-07T02:35:17.061Z,996.87
2019-04-07T02:36:24.757Z,996.88
2019-04-07T02:37:17.927Z,996.87
2019-04-07T02:38:17.721Z,996.93
2019-04-07T02:39:18.073Z,996.91
2019-04-07T02:40:17.842Z,996.95
2019-04-07T02:41:17.814Z,996.94
2019-04-07T02:42:17.150Z,996.94
2019-04-07T02:43:16.857Z,996.95
2019-04-07T02:44:17.945Z,996.93
2019-04-07T02:45:17.107Z,996.92
2019-04-07T02:46:17.200Z,996.96
2019-04-07T02:47:16.805Z,996.95
2019-04-07T02:48:16.854Z,996.90
2019-04-07T02:49:17.819Z,996.96
2019-04-07T02:50:17.744Z,996.92
2019-04-07T02:51:16.795Z,997.00
2019-04-07T02:52:16.881Z,996.95
2019-04-07T02:53:16.767Z,996.92
2019-04-07T02:54:17.501Z,996.91
2019-04-07T02:55:16.736Z,996.91
2019-04-07T02:56:17.855Z,996.96
2019-04-07T02:57:16.847Z,996.98
2019-04-07T02:58:17.867Z,996.93
2019-04-07T02:59:16.682Z,996.95
2019-04-07T03:00:16.732Z,996.95
2019-04-07T03:01:16.670Z,996.88
2019-04-07T03:02:17.785Z,996.91
2019-04-07T03:03:17.157Z,996.92
2019-04-07T03:04:16.751Z,996.86
2019-04-07T03:05:16.627Z,996.96
2019-04-07T03:06:32.570Z,996.93
2019-04-07T03:07:17.708Z,996.92
2019-04-07T03:08:17.285Z,996.92
2019-04-07T03:09:16.571Z,996.91
2019-04-07T03:10:17.039Z,996.92
2019-04-07T03:11:16.558Z,996.91
2019-04-07T03:12:16.598Z,996.92
2019-04-07T03:13:16.902Z,996.90
2019-04-07T03:15:17.582Z,996.93
2019-04-07T03:16:17.293Z,996.91
2019-04-07T03:17:16.531Z,996.92
2019-04-07T03:18:16.591Z,996.89
2019-04-07T03:19:17.038Z,996.88
2019-04-07T03:20:16.864Z,996.89
2019-04-07T03:21:17.031Z,996.94
2019-04-07T03:22:16.497Z,996.89
2019-04-07T03:23:16.452Z,996.95
2019-04-07T03:24:17.066Z,996.94
2019-04-07T03:25:17.199Z,996.98
2019-04-07T03:26:16.499Z,996.95
2019-04-07T03:27:16.389Z,996.91
2019-04-07T03:28:16.441Z,996.89
2019-04-07T03:29:16.354Z,996.98
2019-04-07T03:30:17.835Z,997.00
2019-04-07T03:31:17.715Z,996.94
2019-04-07T03:32:19.028Z,996.97
2019-04-07T03:33:19.225Z,996.93
2019-04-07T03:34:18.445Z,996.93
2019-04-07T03:35:19.807Z,996.95
2019-04-07T03:36:20.493Z,996.93
2019-04-07T03:37:32.256Z,996.99
2019-04-07T03:38:18.763Z,996.92
2019-04-07T03:39:17.128Z,996.96
2019-04-07T03:40:16.233Z,996.92
2019-04-07T03:41:16.305Z,996.92
2019-04-07T03:42:16.216Z,996.92
2019-04-07T03:43:16.312Z,996.88
2019-04-07T03:44:16.414Z,996.89
2019-04-07T03:45:16.215Z,996.89
2019-04-07T03:46:16.195Z,996.88
2019-04-07T03:47:16.460Z,996.86
2019-04-07T03:48:16.168Z,996.87
2019-04-07T03:49:17.002Z,996.83
2019-04-07T03:50:16.490Z,996.87
2019-04-07T03:51:17.149Z,996.84
2019-04-07T03:52:16.979Z,996.83
2019-04-07T03:53:16.180Z,996.86
2019-04-07T03:54:16.663Z,996.90
2019-04-07T03:55:16.997Z,996.92
2019-04-07T03:56:16.057Z,996.86
2019-04-07T03:57:16.581Z,996.89
2019-04-07T03:58:16.301Z,996.96
2019-04-07T03:59:16.257Z,996.91
2019-04-07T04:00:16.861Z,996.95
2019-04-07T04:01:16.128Z,996.91
2019-04-07T04:02:15.999Z,996.88
2019-04-07T04:03:16.773Z,996.94
2019-04-07T04:04:15.999Z,996.97
2019-04-07T04:05:16.086Z,996.92
2019-04-07T04:06:15.952Z,996.90
2019-04-07T04:07:27.537Z,996.95
2019-04-07T04:08:16.936Z,996.95
2019-04-07T04:09:15.981Z,996.94
2019-04-07T04:10:16.037Z,996.93
2019-04-07T04:11:16.153Z,996.92
2019-04-07T04:12:17.039Z,996.94
2019-04-07T04:13:16.571Z,996.96
2019-04-07T04:14:16.503Z,996.97
2019-04-07T04:15:16.794Z,996.96
2019-04-07T04:16:15.997Z,996.97
2019-04-07T04:17:16.445Z,996.89
2019-04-07T04:18:16.184Z,997.00
2019-04-07T04:19:15.841Z,996.93
2019-04-07T04:20:16.100Z,997.00
2019-04-07T04:21:16.412Z,997.03
2019-04-07T04:22:15.786Z,996.99
2019-04-07T04:23:15.869Z,997.04
2019-04-07T04:24:16.754Z,996.99
2019-04-07T04:25:15.813Z,997.04
2019-04-07T04:26:15.743Z,997.00
2019-04-07T04:27:15.802Z,997.07
2019-04-07T04:28:16.362Z,997.03
2019-04-07T04:29:16.828Z,997.00
2019-04-07T04:30:15.724Z,997.01
2019-04-07T04:31:15.726Z,997.01
2019-04-07T04:32:16.645Z,997.02
2019-04-07T04:33:15.981Z,997.05
2019-04-07T04:34:15.673Z,997.14
2019-04-07T04:35:15.816Z,997.11
2019-04-07T04:36:15.645Z,997.14
2019-04-07T04:37:15.664Z,997.13
2019-04-07T04:38:15.837Z,997.17
2019-04-07T04:39:18.694Z,997.14
2019-04-07T04:40:16.027Z,997.14
2019-04-07T04:41:16.793Z,997.11
2019-04-07T04:42:16.176Z,997.16
2019-04-07T04:43:15.742Z,997.21
2019-04-07T04:44:16.520Z,997.19
2019-04-07T04:45:15.849Z,997.20
2019-04-07T04:46:15.569Z,997.18
2019-04-07T04:47:16.641Z,997.21
2019-04-07T04:48:15.597Z,997.31
2019-04-07T04:49:15.567Z,997.19
2019-04-07T04:50:15.478Z,997.23
2019-04-07T04:51:16.339Z,997.24
2019-04-07T04:52:15.670Z,997.32
2019-04-07T04:53:15.582Z,997.25
2019-04-07T04:54:15.433Z,997.31
2019-04-07T04:55:16.549Z,997.27
2019-04-07T04:56:15.537Z,997.33
2019-04-07T04:57:15.489Z,997.31
2019-04-07T04:58:15.417Z,997.33
2019-04-07T04:59:15.418Z,997.36
2019-04-07T05:00:15.787Z,997.34
2019-04-07T05:01:15.375Z,997.34
2019-04-07T05:02:15.981Z,997.37
2019-04-07T05:03:15.998Z,997.32
2019-04-07T05:04:15.994Z,997.35
2019-04-07T05:05:15.347Z,997.40
2019-04-07T05:06:15.306Z,997.37
2019-04-07T05:07:15.696Z,997.41
2019-04-07T05:08:16.142Z,997.36
2019-04-07T05:09:15.389Z,997.41
2019-04-07T05:10:15.249Z,997.37
2019-04-07T05:11:15.862Z,997.33
2019-04-07T05:12:15.332Z,997.37
2019-04-07T05:13:15.989Z,997.39
2019-04-07T05:14:15.208Z,997.41
2019-04-07T05:15:15.305Z,997.36
2019-04-07T05:16:15.183Z,997.37
2019-04-07T05:17:15.379Z,997.45
2019-04-07T05:18:15.232Z,997.46
2019-04-07T05:19:15.236Z,997.43
2019-04-07T05:20:15.134Z,997.43
2019-04-07T05:21:15.247Z,997.45
2019-04-07T05:22:15.246Z,997.49
2019-04-07T05:23:15.225Z,997.46
2019-04-07T05:24:15.746Z,997.50
2019-04-07T05:25:15.174Z,997.49
2019-04-07T05:26:15.596Z,997.40
2019-04-07T05:27:15.117Z,997.48
2019-04-07T05:28:15.417Z,997.45
2019-04-07T05:29:15.863Z,997.46
2019-04-07T05:30:15.602Z,997.51
2019-04-07T05:31:15.111Z,997.53
2019-04-07T05:32:15.717Z,997.50
2019-04-07T05:33:15.391Z,997.56
2019-04-07T05:34:19.322Z,997.50
2019-04-07T05:35:16.064Z,997.54
2019-04-07T05:36:14.966Z,997.55
2019-04-07T05:37:15.051Z,997.55
2019-04-07T05:38:14.960Z,997.59
2019-04-07T05:39:15.289Z,997.58
2019-04-07T05:40:15.522Z,997.63
2019-04-07T05:41:15.629Z,997.63
2019-04-07T05:42:14.896Z,997.66
2019-04-07T05:43:15.133Z,997.71
2019-04-07T05:44:14.869Z,997.64
2019-04-07T05:45:15.037Z,997.71
2019-04-07T05:46:14.868Z,997.67
2019-04-07T05:47:15.533Z,997.64
2019-04-07T05:48:17.440Z,997.73
2019-04-07T05:49:16.261Z,997.73
2019-04-07T05:50:15.401Z,997.74
2019-04-07T05:51:14.928Z,997.64
2019-04-07T05:52:14.900Z,997.67
2019-04-07T05:53:14.897Z,997.71
2019-04-07T05:54:18.063Z,997.71
2019-04-07T05:55:15.189Z,997.74
2019-04-07T05:56:14.749Z,997.76
2019-04-07T05:57:15.013Z,997.73
2019-04-07T05:58:15.793Z,997.78
2019-04-07T05:59:15.663Z,997.78
2019-04-07T06:00:16.720Z,997.85
2019-04-07T06:01:17.083Z,997.82
2019-04-07T06:03:16.416Z,997.84
2019-04-07T06:04:18.185Z,997.87
2019-04-07T06:05:16.234Z,997.87
2019-04-07T06:06:14.874Z,997.85
2019-04-07T06:07:14.840Z,997.90
2019-04-07T06:08:26.850Z,997.88
2019-04-07T06:09:18.899Z,997.81
2019-04-07T06:10:15.390Z,997.87
2019-04-07T06:11:14.802Z,997.92
2019-04-07T06:12:14.683Z,997.91
2019-04-07T06:13:15.656Z,997.88
2019-04-07T06:14:16.590Z,997.89
2019-04-07T06:15:15.731Z,997.87
2019-04-07T06:16:15.196Z,997.94
2019-04-07T06:17:15.215Z,997.97
2019-04-07T06:18:15.002Z,997.99
2019-04-07T06:19:14.931Z,997.94
2019-04-07T06:20:15.890Z,997.91
2019-04-07T06:21:16.162Z,997.91
2019-04-07T06:22:17.465Z,997.96
2019-04-07T06:23:14.448Z,997.95
2019-04-07T06:24:15.523Z,997.95
2019-04-07T06:25:14.438Z,997.93
2019-04-07T06:26:15.086Z,997.95
2019-04-07T06:27:16.126Z,997.99
2019-04-07T06:28:17.215Z,997.97
2019-04-07T06:29:14.958Z,997.94
2019-04-07T06:30:14.400Z,997.94
2019-04-07T06:31:14.475Z,997.97
2019-04-07T06:32:14.434Z,997.94
2019-04-07T06:33:14.330Z,997.97
2019-04-07T06:34:14.452Z,998.00
2019-04-07T06:35:14.316Z,997.98
2019-04-07T06:36:17.517Z,998.02
2019-04-07T06:37:14.560Z,997.99
2019-04-07T06:38:14.484Z,998.05
2019-04-07T06:39:17.392Z,998.00
2019-04-07T06:40:14.392Z,998.04
2019-04-07T06:41:14.256Z,998.06
2019-04-07T06:42:14.332Z,998.04
2019-04-07T06:43:14.578Z,998.11
2019-04-07T06:44:19.369Z,998.13
2019-04-07T06:45:15.283Z,998.06
2019-04-07T06:46:14.416Z,998.11
2019-04-07T06:47:15.940Z,998.13
2019-04-07T06:48:14.910Z,998.12
2019-04-07T06:49:15.038Z,998.16
2019-04-07T06:50:15.692Z,998.12
2019-04-07T06:51:14.167Z,998.14
2019-04-07T06:52:14.707Z,998.19
2019-04-07T06:53:18.630Z,998.16
2019-04-07T06:54:18.521Z,998.14
2019-04-07T06:55:15.151Z,998.20
2019-04-07T06:56:14.332Z,998.18
2019-04-07T06:57:14.825Z,998.14
2019-04-07T06:58:14.184Z,998.15
2019-04-07T06:59:15.541Z,998.25
2019-04-07T07:00:14.093Z,998.23
2019-04-07T07:01:14.369Z,998.23
2019-04-07T07:02:14.277Z,998.28
2019-04-07T07:03:14.022Z,998.25
2019-04-07T07:04:14.046Z,998.30
2019-04-07T07:05:14.415Z,998.30
2019-04-07T07:06:17.077Z,998.30
2019-04-07T07:07:15.941Z,998.34
2019-04-07T07:08:14.065Z,998.35
2019-04-07T07:09:15.431Z,998.27
2019-04-07T07:10:25.769Z,998.27
2019-04-07T07:11:24.775Z,998.33
2019-04-07T07:12:23.490Z,998.33
2019-04-07T07:13:26.492Z,998.31
2019-04-07T07:14:30.058Z,998.39
2019-04-07T07:15:15.375Z,998.40
2019-04-07T07:16:15.820Z,998.35
2019-04-07T07:17:16.970Z,998.33
2019-04-07T07:18:14.212Z,998.38
2019-04-07T07:19:14.174Z,998.36
2019-04-07T07:20:13.969Z,998.37
2019-04-07T07:21:14.455Z,998.35
2019-04-07T07:22:16.045Z,998.36
2019-04-07T07:23:15.091Z,998.31
2019-04-07T07:24:15.669Z,998.32
2019-04-07T07:25:13.877Z,998.38
2019-04-07T07:26:13.776Z,998.34
2019-04-07T07:27:14.005Z,998.36
2019-04-07T07:28:13.758Z,998.35
2019-04-07T07:29:15.404Z,998.34
2019-04-07T07:30:17.503Z,998.38
2019-04-07T07:31:14.332Z,998.34
2019-04-07T07:32:13.736Z,998.39
2019-04-07T07:33:13.723Z,998.39
2019-04-07T07:34:14.316Z,998.40
2019-04-07T07:35:15.319Z,998.37
2019-04-07T07:36:17.352Z,998.34
2019-04-07T07:37:14.973Z,998.43
2019-04-07T07:38:13.700Z,998.40
2019-04-07T07:39:14.561Z,998.41
2019-04-07T07:40:16.604Z,998.41
2019-04-07T07:41:14.083Z,998.40
2019-04-07T07:42:13.763Z,998.39
2019-04-07T07:43:14.384Z,998.50
2019-04-07T07:44:13.565Z,998.45
2019-04-07T07:45:13.996Z,998.45
2019-04-07T07:46:17.751Z,998.45
2019-04-07T07:47:14.665Z,998.43
2019-04-07T07:48:13.537Z,998.38
2019-04-07T07:49:13.655Z,998.38
2019-04-07T07:50:13.604Z,998.37
2019-04-07T07:51:15.212Z,998.39
2019-04-07T07:52:16.552Z,998.42
2019-04-07T07:53:14.596Z,998.48
2019-04-07T07:54:14.772Z,998.46
2019-04-07T07:55:14.231Z,998.51
2019-04-07T07:56:14.290Z,998.50
2019-04-07T07:57:13.469Z,998.55
2019-04-07T07:58:13.904Z,998.53
2019-04-07T07:59:13.513Z,998.51
2019-04-07T08:00:13.397Z,998.54
2019-04-07T08:01:14.877Z,998.52
2019-04-07T08:02:16.796Z,998.60
2019-04-07T08:03:14.671Z,998.56
2019-04-07T08:04:13.983Z,998.62
2019-04-07T08:05:13.596Z,998.62
2019-04-07T08:06:13.326Z,998.57
2019-04-07T08:07:15.238Z,998.59
2019-04-07T08:08:15.007Z,998.61
2019-04-07T08:09:15.576Z,998.63
2019-04-07T08:10:14.708Z,998.66
2019-04-07T08:11:15.657Z,998.65
2019-04-07T08:12:13.258Z,998.62
2019-04-07T08:13:13.273Z,998.66
2019-04-07T08:14:16.652Z,998.69
2019-04-07T08:15:13.789Z,998.73
2019-04-07T08:16:13.206Z,998.72
2019-04-07T08:17:13.712Z,998.71
2019-04-07T08:18:13.210Z,998.72
2019-04-07T08:19:13.537Z,998.69
2019-04-07T08:20:13.167Z,998.70
2019-04-07T08:21:17.153Z,998.70
2019-04-07T08:22:26.389Z,998.73
2019-04-07T08:23:14.321Z,998.79
2019-04-07T08:24:16.419Z,998.78
2019-04-07T08:25:13.131Z,998.72
2019-04-07T08:26:13.421Z,998.73
2019-04-07T08:27:13.112Z,998.79
2019-04-07T08:28:13.546Z,998.77
2019-04-07T08:29:13.871Z,998.78
2019-04-07T08:30:13.883Z,998.76
2019-04-07T08:31:13.269Z,998.74
2019-04-07T08:32:13.309Z,998.79
2019-04-07T08:33:13.032Z,998.74
2019-04-07T08:34:13.146Z,998.81
2019-04-07T08:35:13.131Z,998.79
2019-04-07T08:36:14.200Z,998.78
2019-04-07T08:37:15.163Z,998.83
2019-04-07T08:38:13.928Z,998.79
2019-04-07T08:39:21.596Z,998.79
2019-04-07T08:40:14.064Z,998.75
2019-04-07T08:41:15.468Z,998.75
2019-04-07T08:42:17.498Z,998.84
2019-04-07T08:43:14.874Z,998.79
2019-04-07T08:44:12.912Z,998.82
2019-04-07T08:45:13.029Z,998.86
2019-04-07T08:46:13.655Z,998.81
2019-04-07T08:47:18.860Z,998.73
2019-04-07T08:48:13.886Z,998.79
2019-04-07T08:49:12.919Z,998.86
2019-04-07T08:50:13.314Z,998.83
2019-04-07T08:51:13.631Z,998.80
2019-04-07T08:52:13.063Z,998.80
2019-04-07T08:53:13.833Z,998.80
2019-04-07T08:54:15.740Z,998.81
2019-04-07T08:55:12.922Z,998.75
2019-04-07T08:56:13.003Z,998.78
2019-04-07T08:57:12.874Z,998.81
2019-04-07T08:58:24.455Z,998.83
2019-04-07T08:59:16.815Z,998.79
2019-04-07T09:00:15.068Z,998.83
2019-04-07T09:01:12.753Z,998.82
2019-04-07T09:02:12.800Z,998.76
2019-04-07T09:03:15.126Z,998.88
2019-04-07T09:04:15.138Z,998.81
2019-04-07T09:05:12.984Z,998.85
2019-04-07T09:06:13.013Z,998.75
2019-04-07T09:07:12.692Z,998.84
2019-04-07T09:08:12.754Z,998.79
2019-04-07T09:09:13.946Z,998.80
2019-04-07T09:10:12.762Z,998.76
2019-04-07T09:11:13.092Z,998.76
2019-04-07T09:12:12.691Z,998.79
2019-04-07T09:13:13.106Z,998.80
2019-04-07T09:14:14.747Z,998.90
2019-04-07T09:15:13.079Z,998.78
2019-04-07T09:16:15.094Z,998.76
2019-04-07T09:17:12.712Z,998.77
2019-04-07T09:18:14.943Z,998.75
2019-04-07T09:19:12.529Z,998.78
2019-04-07T09:20:13.463Z,998.79
2019-04-07T09:21:14.903Z,998.75
2019-04-07T09:22:12.814Z,998.75
2019-04-07T09:23:12.485Z,998.65
2019-04-07T09:24:12.628Z,998.75
2019-04-07T09:25:13.064Z,998.78
2019-04-07T09:26:12.558Z,998.75
2019-04-07T09:27:16.995Z,998.73
2019-04-07T09:28:14.266Z,998.75
2019-04-07T09:29:12.761Z,998.71
2019-04-07T09:30:12.484Z,998.76
2019-04-07T09:31:13.093Z,998.76
2019-04-07T09:32:12.529Z,998.78
2019-04-07T09:33:12.555Z,998.76
2019-04-07T09:34:12.874Z,998.81
2019-04-07T09:35:12.416Z,998.82
2019-04-07T09:36:12.416Z,998.79
2019-04-07T09:37:12.354Z,998.86
2019-04-07T09:38:12.498Z,998.81
2019-04-07T09:39:12.409Z,998.79
2019-04-07T09:40:13.692Z,998.85
2019-04-07T09:41:12.288Z,998.85
2019-04-07T09:42:12.414Z,998.89
2019-04-07T09:43:12.666Z,998.92
2019-04-07T09:44:12.539Z,998.87
2019-04-07T09:45:12.800Z,998.89
2019-04-07T09:46:12.289Z,998.91
2019-04-07T09:47:15.914Z,998.88
2019-04-07T09:48:12.401Z,998.86
2019-04-07T09:49:12.209Z,998.89
2019-04-07T09:50:12.321Z,998.87
2019-04-07T09:51:12.171Z,998.87
2019-04-07T09:52:14.914Z,998.86
2019-04-07T09:53:15.810Z,998.89
2019-04-07T09:54:12.324Z,998.84
2019-04-07T09:55:12.148Z,998.88
2019-04-07T09:56:12.953Z,998.88
2019-04-07T09:57:12.220Z,998.93
2019-04-07T09:58:12.272Z,998.91
2019-04-07T09:59:15.416Z,998.86
2019-04-07T10:00:14.325Z,998.90
2019-04-07T10:01:12.990Z,998.91
2019-04-07T10:02:12.478Z,998.87
2019-04-07T10:03:14.466Z,998.87
2019-04-07T10:04:12.218Z,998.92
2019-04-07T10:05:12.026Z,998.89
2019-04-07T10:06:12.215Z,998.89
2019-04-07T10:07:13.034Z,998.89
2019-04-07T10:08:13.852Z,998.95
2019-04-07T10:09:11.983Z,998.88
2019-04-07T10:10:14.483Z,998.86
2019-04-07T10:11:12.847Z,998.89
2019-04-07T10:12:12.772Z,998.85
2019-04-07T10:13:12.370Z,998.93
2019-04-07T10:14:12.664Z,998.90
2019-04-07T10:15:12.921Z,998.87
2019-04-07T10:16:12.094Z,998.88
2019-04-07T10:17:11.922Z,998.94
2019-04-07T10:18:12.097Z,998.92
2019-04-07T10:19:11.902Z,998.96
2019-04-07T10:20:12.363Z,998.88
2019-04-07T10:21:11.895Z,998.93
2019-04-07T10:22:12.436Z,998.93
2019-04-07T10:23:11.826Z,998.95
2019-04-07T10:24:12.152Z,998.92
2019-04-07T10:25:12.030Z,998.95
2019-04-07T10:26:11.846Z,998.96
2019-04-07T10:27:12.522Z,999.00
2019-04-07T10:28:12.891Z,998.91
2019-04-07T10:29:12.206Z,998.94
2019-04-07T10:30:11.925Z,998.99
2019-04-07T10:31:12.558Z,998.95
2019-04-07T10:32:12.475Z,998.97
2019-04-07T10:33:12.186Z,998.94
2019-04-07T10:34:13.277Z,998.93
2019-04-07T10:35:12.513Z,999.01
2019-04-07T10:36:11.815Z,999.00
2019-04-07T10:37:11.678Z,998.93
2019-04-07T10:38:12.568Z,998.97
2019-04-07T10:39:12.007Z,998.95
2019-04-07T10:40:18.898Z,998.95
2019-04-07T10:41:12.918Z,998.95
2019-04-07T10:42:12.477Z,998.99
2019-04-07T10:43:11.791Z,999.02
2019-04-07T10:44:11.705Z,999.03
2019-04-07T10:45:12.037Z,998.97
2019-04-07T10:46:12.366Z,998.98
2019-04-07T10:47:11.867Z,999.01
2019-04-07T10:48:12.030Z,998.93
2019-04-07T10:49:11.548Z,998.97
2019-04-07T10:50:11.637Z,998.91
2019-04-07T10:51:12.169Z,998.91
2019-04-07T10:52:11.654Z,998.92
2019-04-07T10:53:11.512Z,998.90
2019-04-07T10:54:11.532Z,998.88
2019-04-07T10:55:11.569Z,998.89
2019-04-07T10:56:12.517Z,998.88
2019-04-07T10:57:12.206Z,998.87
2019-04-07T10:58:11.596Z,998.91
2019-04-07T10:59:11.506Z,998.95
2019-04-07T11:00:11.500Z,998.90
2019-04-07T11:01:11.494Z,998.88
2019-04-07T11:02:11.950Z,998.91
2019-04-07T11:03:12.071Z,998.86
2019-04-07T11:04:11.500Z,998.95
2019-04-07T11:05:12.028Z,998.82
2019-04-07T11:06:11.642Z,998.90
2019-04-07T11:07:11.347Z,998.84
2019-04-07T11:08:11.677Z,998.85
2019-04-07T11:09:11.333Z,998.80
2019-04-07T11:10:11.585Z,998.92
2019-04-07T11:11:12.139Z,998.86
2019-04-07T11:12:11.398Z,998.88
2019-04-07T11:13:13.435Z,998.85
2019-04-07T11:14:11.370Z,998.85
2019-04-07T11:15:11.268Z,998.90
2019-04-07T11:16:11.424Z,998.85
2019-04-07T11:17:11.425Z,998.88
2019-04-07T11:18:11.288Z,998.85
2019-04-07T11:19:11.223Z,998.91
2019-04-07T11:20:11.655Z,998.84
2019-04-07T11:21:12.125Z,998.86
2019-04-07T11:22:11.209Z,998.94
2019-04-07T11:23:11.917Z,998.80
2019-04-07T11:24:11.238Z,998.86
2019-04-07T11:25:11.932Z,998.84
2019-04-07T11:26:11.316Z,998.82
2019-04-07T11:27:11.307Z,998.89
2019-04-07T11:28:11.182Z,998.86
2019-04-07T11:29:11.172Z,998.86
2019-04-07T11:30:11.494Z,998.83
2019-04-07T11:31:11.148Z,998.80
2019-04-07T11:32:12.026Z,998.81
2019-04-07T11:33:11.746Z,998.79
2019-04-07T11:34:11.133Z,998.83
2019-04-07T11:35:11.227Z,998.86
2019-04-07T11:36:11.114Z,998.84
2019-04-07T11:37:12.865Z,998.83
2019-04-07T11:38:11.147Z,998.81
2019-04-07T11:39:11.130Z,998.80
2019-04-07T11:40:11.727Z,998.85
2019-04-07T11:41:11.195Z,998.82
2019-04-07T11:42:11.826Z,998.85
2019-04-07T11:43:11.175Z,998.78
2019-04-07T11:44:11.713Z,998.87
2019-04-07T11:45:11.341Z,998.75
2019-04-07T11:46:10.974Z,998.81
2019-04-07T11:47:11.017Z,998.78
2019-04-07T11:48:10.986Z,998.82
2019-04-07T11:49:13.096Z,998.82
2019-04-07T11:50:10.995Z,998.80
2019-04-07T11:51:10.868Z,998.77
2019-04-07T11:52:11.488Z,998.78
2019-04-07T11:53:11.070Z,998.76
2019-04-07T11:54:10.930Z,998.74
2019-04-07T11:55:11.848Z,998.72
2019-04-07T11:56:11.501Z,998.77
2019-04-07T11:57:10.921Z,998.78
2019-04-07T11:58:15.539Z,998.85
2019-04-07T11:59:11.788Z,998.80
2019-04-07T12:00:12.335Z,998.86
2019-04-07T12:01:14.244Z,998.85
2019-04-07T12:02:10.878Z,998.86
2019-04-07T12:03:11.653Z,998.78
2019-04-07T12:04:11.222Z,998.79
2019-04-07T12:05:10.719Z,998.80
2019-04-07T12:06:11.637Z,998.80
2019-04-07T12:07:11.157Z,998.83
2019-04-07T12:08:11.499Z,998.75
2019-04-07T12:09:10.877Z,998.80
2019-04-07T12:10:11.455Z,998.75
2019-04-07T12:11:13.075Z,998.81
2019-04-07T12:12:11.448Z,998.67
2019-04-07T12:13:10.680Z,998.80
2019-04-07T12:14:10.733Z,998.74
2019-04-07T12:15:10.779Z,998.76
2019-04-07T12:16:10.680Z,998.72
2019-04-07T12:17:12.549Z,998.73
2019-04-07T12:18:14.964Z,998.75
2019-04-07T12:19:12.604Z,998.65
2019-04-07T12:20:10.897Z,998.74
2019-04-07T12:21:20.096Z,998.74
2019-04-07T12:22:13.835Z,998.72
2019-04-07T12:23:10.700Z,998.75
2019-04-07T12:24:10.699Z,998.70
2019-04-07T12:25:10.633Z,998.81
2019-04-07T12:26:10.485Z,998.73
2019-04-07T12:27:12.361Z,998.82
2019-04-07T12:28:14.703Z,998.72
2019-04-07T12:29:12.416Z,998.73
2019-04-07T12:30:10.461Z,998.69